sensor_id;sensor_type;location;lat;lon;timestamp;P1;durP1;ratioP1;P2;durP2;ratioP2
61572;SDS011;47465;43.094;12.434;2023-05-07T08:16:44;5.70;;;3.78;;
61572;SDS011;47465;43.094;12.434;2023-05-07T08:19:11;6.10;;;4.00;;
61572;SDS011;47465;43.094;12.434;2023-05-07T08:21:38;6.38;;;4.35;;
61572;SDS011;47465;43.094;12.434;2023-05-07T08:24:05;7.03;;;4.10;;
61572;SDS011;47465;43.094;12.434;2023-05-07T08:26:32;5.72;;;4.20;;
61572;SDS011;47465;43.094;12.434;2023-05-07T08:28:58;7.10;;;4.55;;
61572;SDS011;47465;43.094;12.434;2023-05-07T08:31:23;7.18;;;4.53;;
61572;SDS011;47465;43.094;12.434;2023-05-07T08:33:51;6.53;;;4.25;;
61572;SDS011;47465;43.094;12.434;2023-05-07T08:36:17;7.53;;;4.50;;
61572;SDS011;47465;43.094;12.434;2023-05-07T08:38:44;6.93;;;4.35;;
61572;SDS011;47465;43.094;12.434;2023-05-07T08:41:10;7.80;;;4.60;;
61572;SDS011;47465;43.094;12.434;2023-05-07T08:43:36;5.20;;;3.90;;
61572;SDS011;47465;43.094;12.434;2023-05-07T08:46:05;6.03;;;4.03;;
61572;SDS011;47465;43.094;12.434;2023-05-07T08:48:34;5.95;;;3.95;;
61572;SDS011;47465;43.094;12.434;2023-05-07T08:51:01;5.97;;;3.90;;
61572;SDS011;47465;43.094;12.434;2023-05-07T08:53:28;5.45;;;4.13;;
61572;SDS011;47465;43.094;12.434;2023-05-07T08:55:53;6.15;;;4.10;;
61572;SDS011;47465;43.094;12.434;2023-05-07T08:58:20;6.20;;;4.10;;
61572;SDS011;47465;43.094;12.434;2023-05-07T09:00:46;9.20;;;6.05;;
61572;SDS011;47465;43.094;12.434;2023-05-07T09:03:12;10.52;;;6.03;;
61572;SDS011;47465;43.094;12.434;2023-05-07T09:05:39;10.63;;;6.38;;
61572;SDS011;47465;43.094;12.434;2023-05-07T09:08:06;10.65;;;6.75;;
61572;SDS011;47465;43.094;12.434;2023-05-07T09:10:33;12.85;;;7.43;;
61572;SDS011;47465;43.094;12.434;2023-05-07T09:12:59;8.73;;;6.07;;
61572;SDS011;47465;43.094;12.434;2023-05-07T09:15:25;8.98;;;6.10;;
61572;SDS011;47465;43.094;12.434;2023-05-07T09:17:51;8.35;;;5.88;;
61572;SDS011;47465;43.094;12.434;2023-05-07T09:20:18;10.15;;;7.22;;
61572;SDS011;47465;43.094;12.434;2023-05-07T09:22:44;10.55;;;6.57;;
61572;SDS011;47465;43.094;12.434;2023-05-07T09:25:11;8.68;;;5.85;;
61572;SDS011;47465;43.094;12.434;2023-05-07T09:27:37;6.72;;;4.80;;
61572;SDS011;47465;43.094;12.434;2023-05-07T09:30:04;6.45;;;4.18;;
61572;SDS011;47465;43.094;12.434;2023-05-07T09:32:33;4.90;;;3.37;;
61572;SDS011;47465;43.094;12.434;2023-05-07T09:35:00;4.25;;;3.00;;
61572;SDS011;47465;43.094;12.434;2023-05-07T09:37:26;4.50;;;3.17;;
61572;SDS011;47465;43.094;12.434;2023-05-07T09:39:52;5.30;;;3.50;;
61572;SDS011;47465;43.094;12.434;2023-05-07T09:42:24;3.92;;;3.05;;
61572;SDS011;47465;43.094;12.434;2023-05-07T09:44:51;4.38;;;2.90;;
61572;SDS011;47465;43.094;12.434;2023-05-07T09:47:18;3.75;;;2.90;;
61572;SDS011;47465;43.094;12.434;2023-05-07T09:49:46;4.45;;;2.88;;
61572;SDS011;47465;43.094;12.434;2023-05-07T09:52:14;4.68;;;3.28;;
61572;SDS011;47465;43.094;12.434;2023-05-07T09:54:41;6.45;;;3.20;;
61572;SDS011;47465;43.094;12.434;2023-05-07T09:57:08;4.70;;;3.10;;
61572;SDS011;47465;43.094;12.434;2023-05-07T09:59:37;5.10;;;3.40;;
61572;SDS011;47465;43.094;12.434;2023-05-07T10:02:04;6.05;;;3.00;;
61572;SDS011;47465;43.094;12.434;2023-05-07T10:04:31;5.18;;;3.00;;
61572;SDS011;47465;43.094;12.434;2023-05-07T10:06:57;5.85;;;3.40;;
61572;SDS011;47465;43.094;12.434;2023-05-07T10:09:25;3.83;;;2.75;;
61572;SDS011;47465;43.094;12.434;2023-05-07T10:11:51;6.65;;;3.00;;
61572;SDS011;47465;43.094;12.434;2023-05-07T10:14:18;5.43;;;3.65;;
61572;SDS011;47465;43.094;12.434;2023-05-07T10:16:47;4.30;;;2.83;;
61572;SDS011;47465;43.094;12.434;2023-05-07T10:19:13;4.80;;;3.00;;
61572;SDS011;47465;43.094;12.434;2023-05-07T10:21:42;5.78;;;3.70;;
61572;SDS011;47465;43.094;12.434;2023-05-07T10:24:11;4.38;;;2.80;;
61572;SDS011;47465;43.094;12.434;2023-05-07T10:26:42;3.15;;;2.30;;
61572;SDS011;47465;43.094;12.434;2023-05-07T10:29:12;3.50;;;2.60;;
61572;SDS011;47465;43.094;12.434;2023-05-07T10:31:51;4.40;;;2.90;;
61572;SDS011;47465;43.094;12.434;2023-05-07T10:34:24;3.28;;;2.13;;
61572;SDS011;47465;43.094;12.434;2023-05-07T10:36:53;3.63;;;2.45;;
61572;SDS011;47465;43.094;12.434;2023-05-07T10:39:21;3.53;;;2.40;;
61572;SDS011;47465;43.094;12.434;2023-05-07T10:41:48;3.10;;;2.38;;
61572;SDS011;47465;43.094;12.434;2023-05-07T10:44:24;4.05;;;2.65;;
61572;SDS011;47465;43.094;12.434;2023-05-07T10:47:04;3.45;;;2.45;;
61572;SDS011;47465;43.094;12.434;2023-05-07T10:49:31;5.00;;;3.03;;
61572;SDS011;47465;43.094;12.434;2023-05-07T10:52:13;3.35;;;2.60;;
61572;SDS011;47465;43.094;12.434;2023-05-07T10:54:41;3.22;;;2.42;;
61572;SDS011;47465;43.094;12.434;2023-05-07T11:00:01;5.03;;;2.90;;
61572;SDS011;47465;43.094;12.434;2023-05-07T11:05:29;10.88;;;3.03;;
61572;SDS011;47465;43.094;12.434;2023-05-07T11:07:56;5.88;;;3.08;;
61572;SDS011;47465;43.094;12.434;2023-05-07T11:10:23;5.00;;;3.63;;
61572;SDS011;47465;43.094;12.434;2023-05-07T11:13:08;7.15;;;3.38;;
61572;SDS011;47465;43.094;12.434;2023-05-07T11:15:44;4.88;;;3.40;;
61572;SDS011;47465;43.094;12.434;2023-05-07T11:18:14;4.35;;;2.80;;
61572;SDS011;47465;43.094;12.434;2023-05-07T11:20:47;4.55;;;3.15;;
61572;SDS011;47465;43.094;12.434;2023-05-07T11:26:46;7.20;;;3.63;;
61572;SDS011;47465;43.094;12.434;2023-05-07T11:29:14;6.50;;;3.63;;
61572;SDS011;47465;43.094;12.434;2023-05-07T11:31:41;4.93;;;3.20;;
61572;SDS011;47465;43.094;12.434;2023-05-07T11:34:07;5.55;;;2.90;;
61572;SDS011;47465;43.094;12.434;2023-05-07T11:36:37;5.90;;;3.22;;
61572;SDS011;47465;43.094;12.434;2023-05-07T11:39:22;6.22;;;2.90;;
61572;SDS011;47465;43.094;12.434;2023-05-07T11:41:49;6.30;;;3.17;;
61572;SDS011;47465;43.094;12.434;2023-05-07T11:44:15;4.93;;;2.80;;
61572;SDS011;47465;43.094;12.434;2023-05-07T11:46:42;4.28;;;3.25;;
61572;SDS011;47465;43.094;12.434;2023-05-07T11:49:09;4.07;;;2.60;;
61572;SDS011;47465;43.094;12.434;2023-05-07T11:51:36;5.63;;;3.30;;
61572;SDS011;47465;43.094;12.434;2023-05-07T11:54:04;4.47;;;3.20;;
61572;SDS011;47465;43.094;12.434;2023-05-07T11:56:34;5.25;;;3.40;;
61572;SDS011;47465;43.094;12.434;2023-05-07T11:59:00;4.13;;;3.10;;
61572;SDS011;47465;43.094;12.434;2023-05-07T12:01:26;4.75;;;3.20;;
61572;SDS011;47465;43.094;12.434;2023-05-07T12:03:52;6.18;;;3.40;;
61572;SDS011;47465;43.094;12.434;2023-05-07T12:06:18;6.55;;;3.70;;
61572;SDS011;47465;43.094;12.434;2023-05-07T12:08:46;5.88;;;3.53;;
61572;SDS011;47465;43.094;12.434;2023-05-07T12:11:13;6.15;;;3.40;;
61572;SDS011;47465;43.094;12.434;2023-05-07T12:13:41;5.55;;;3.25;;
61572;SDS011;47465;43.094;12.434;2023-05-07T12:16:07;5.72;;;3.47;;
61572;SDS011;47465;43.094;12.434;2023-05-07T12:18:36;5.55;;;3.50;;
61572;SDS011;47465;43.094;12.434;2023-05-07T12:21:03;5.68;;;3.45;;
61572;SDS011;47465;43.094;12.434;2023-05-07T12:25:58;5.15;;;3.40;;
61572;SDS011;47465;43.094;12.434;2023-05-07T12:28:25;5.18;;;3.60;;
61572;SDS011;47465;43.094;12.434;2023-05-07T12:30:51;6.22;;;3.40;;
61572;SDS011;47465;43.094;12.434;2023-05-07T12:33:17;6.45;;;3.97;;
61572;SDS011;47465;43.094;12.434;2023-05-07T12:35:44;5.80;;;3.95;;
61572;SDS011;47465;43.094;12.434;2023-05-07T12:38:11;4.85;;;3.60;;
61572;SDS011;47465;43.094;12.434;2023-05-07T12:40:37;6.70;;;3.63;;
61572;SDS011;47465;43.094;12.434;2023-05-07T12:43:06;6.38;;;3.92;;
61572;SDS011;47465;43.094;12.434;2023-05-07T12:45:35;6.03;;;3.70;;
61572;SDS011;47465;43.094;12.434;2023-05-07T12:48:02;6.40;;;4.20;;
61572;SDS011;47465;43.094;12.434;2023-05-07T12:50:30;5.68;;;3.78;;
61572;SDS011;47465;43.094;12.434;2023-05-07T12:52:57;5.80;;;3.92;;
61572;SDS011;47465;43.094;12.434;2023-05-07T12:55:24;5.95;;;4.05;;
61572;SDS011;47465;43.094;12.434;2023-05-07T12:57:49;5.28;;;3.90;;
61572;SDS011;47465;43.094;12.434;2023-05-07T13:00:18;6.22;;;3.72;;
61572;SDS011;47465;43.094;12.434;2023-05-07T13:02:58;5.45;;;4.00;;
61572;SDS011;47465;43.094;12.434;2023-05-07T13:05:24;8.48;;;3.90;;
61572;SDS011;47465;43.094;12.434;2023-05-07T13:07:53;7.28;;;4.00;;
61572;SDS011;47465;43.094;12.434;2023-05-07T13:10:19;6.72;;;4.20;;
61572;SDS011;47465;43.094;12.434;2023-05-07T13:12:45;5.97;;;3.95;;
61572;SDS011;47465;43.094;12.434;2023-05-07T13:15:11;5.45;;;3.92;;
61572;SDS011;47465;43.094;12.434;2023-05-07T13:17:38;5.97;;;3.90;;
61572;SDS011;47465;43.094;12.434;2023-05-07T13:20:04;7.90;;;4.05;;
61572;SDS011;47465;43.094;12.434;2023-05-07T13:22:31;5.75;;;4.10;;
61572;SDS011;47465;43.094;12.434;2023-05-07T13:24:57;8.23;;;3.90;;
61572;SDS011;47465;43.094;12.434;2023-05-07T13:27:23;6.97;;;4.22;;
61572;SDS011;47465;43.094;12.434;2023-05-07T13:29:49;7.63;;;4.28;;
61572;SDS011;47465;43.094;12.434;2023-05-07T13:32:15;9.80;;;4.18;;
61572;SDS011;47465;43.094;12.434;2023-05-07T13:34:42;7.30;;;4.10;;
61572;SDS011;47465;43.094;12.434;2023-05-07T13:37:08;6.13;;;4.18;;
61572;SDS011;47465;43.094;12.434;2023-05-07T13:39:33;7.60;;;4.40;;
61572;SDS011;47465;43.094;12.434;2023-05-07T13:41:59;7.72;;;4.05;;
61572;SDS011;47465;43.094;12.434;2023-05-07T13:44:25;6.65;;;4.20;;
61572;SDS011;47465;43.094;12.434;2023-05-07T13:46:51;7.63;;;3.97;;
61572;SDS011;47465;43.094;12.434;2023-05-07T13:49:17;5.38;;;3.75;;
61572;SDS011;47465;43.094;12.434;2023-05-07T13:51:44;7.65;;;4.45;;
61572;SDS011;47465;43.094;12.434;2023-05-07T13:54:10;5.82;;;3.97;;
61572;SDS011;47465;43.094;12.434;2023-05-07T13:56:37;5.60;;;4.13;;
61572;SDS011;47465;43.094;12.434;2023-05-07T13:59:02;6.75;;;4.05;;
61572;SDS011;47465;43.094;12.434;2023-05-07T14:01:28;6.07;;;4.22;;
61572;SDS011;47465;43.094;12.434;2023-05-07T14:03:55;5.88;;;4.28;;
61572;SDS011;47465;43.094;12.434;2023-05-07T14:06:21;5.88;;;4.20;;
61572;SDS011;47465;43.094;12.434;2023-05-07T14:08:48;8.57;;;4.25;;
61572;SDS011;47465;43.094;12.434;2023-05-07T14:11:14;8.85;;;4.57;;
61572;SDS011;47465;43.094;12.434;2023-05-07T14:13:40;6.80;;;4.25;;
61572;SDS011;47465;43.094;12.434;2023-05-07T14:16:06;6.75;;;4.75;;
61572;SDS011;47465;43.094;12.434;2023-05-07T14:18:32;6.20;;;4.55;;
61572;SDS011;47465;43.094;12.434;2023-05-07T14:20:59;14.25;;;4.78;;
61572;SDS011;47465;43.094;12.434;2023-05-07T14:23:25;8.48;;;4.68;;
61572;SDS011;47465;43.094;12.434;2023-05-07T14:25:53;9.38;;;5.38;;
61572;SDS011;47465;43.094;12.434;2023-05-07T14:28:18;14.52;;;4.72;;
61572;SDS011;47465;43.094;12.434;2023-05-07T14:30:44;8.35;;;4.88;;
61572;SDS011;47465;43.094;12.434;2023-05-07T14:33:10;10.57;;;5.25;;
61572;SDS011;47465;43.094;12.434;2023-05-07T14:35:36;6.57;;;4.50;;
61572;SDS011;47465;43.094;12.434;2023-05-07T14:38:02;7.28;;;4.55;;
61572;SDS011;47465;43.094;12.434;2023-05-07T14:40:28;7.88;;;4.60;;
61572;SDS011;47465;43.094;12.434;2023-05-07T14:42:55;7.03;;;4.82;;
61572;SDS011;47465;43.094;12.434;2023-05-07T14:45:22;7.78;;;4.20;;
61572;SDS011;47465;43.094;12.434;2023-05-07T14:47:48;9.35;;;4.70;;
61572;SDS011;47465;43.094;12.434;2023-05-07T14:50:14;9.50;;;4.68;;
61572;SDS011;47465;43.094;12.434;2023-05-07T14:52:40;7.90;;;4.72;;
61572;SDS011;47465;43.094;12.434;2023-05-07T14:55:06;7.88;;;4.45;;
61572;SDS011;47465;43.094;12.434;2023-05-07T14:57:32;7.20;;;4.35;;
61572;SDS011;47465;43.094;12.434;2023-05-07T15:00:01;7.53;;;4.50;;
61572;SDS011;47465;43.094;12.434;2023-05-07T15:02:30;7.15;;;4.45;;
61572;SDS011;47465;43.094;12.434;2023-05-07T15:04:59;6.13;;;3.95;;
61572;SDS011;47465;43.094;12.434;2023-05-07T15:07:25;7.88;;;4.22;;
61572;SDS011;47465;43.094;12.434;2023-05-07T15:09:51;6.63;;;4.60;;
61572;SDS011;47465;43.094;12.434;2023-05-07T15:12:16;6.47;;;4.63;;
61572;SDS011;47465;43.094;12.434;2023-05-07T15:14:42;5.82;;;3.90;;
61572;SDS011;47465;43.094;12.434;2023-05-07T15:17:09;8.68;;;4.10;;
61572;SDS011;47465;43.094;12.434;2023-05-07T15:19:35;7.43;;;4.07;;
61572;SDS011;47465;43.094;12.434;2023-05-07T15:22:01;8.15;;;5.30;;
61572;SDS011;47465;43.094;12.434;2023-05-07T15:24:27;7.53;;;4.07;;
61572;SDS011;47465;43.094;12.434;2023-05-07T15:26:53;9.88;;;4.22;;
61572;SDS011;47465;43.094;12.434;2023-05-07T15:29:19;6.43;;;3.85;;
61572;SDS011;47465;43.094;12.434;2023-05-07T15:31:45;6.05;;;3.65;;
61572;SDS011;47465;43.094;12.434;2023-05-07T15:34:12;5.40;;;3.97;;
61572;SDS011;47465;43.094;12.434;2023-05-07T15:36:40;9.27;;;4.00;;
61572;SDS011;47465;43.094;12.434;2023-05-07T15:39:06;7.75;;;3.80;;
61572;SDS011;47465;43.094;12.434;2023-05-07T15:41:32;10.13;;;3.90;;
61572;SDS011;47465;43.094;12.434;2023-05-07T15:43:58;6.78;;;3.88;;
61572;SDS011;47465;43.094;12.434;2023-05-07T15:46:24;5.00;;;3.60;;
61572;SDS011;47465;43.094;12.434;2023-05-07T15:48:51;10.68;;;4.25;;
61572;SDS011;47465;43.094;12.434;2023-05-07T15:51:19;7.93;;;4.03;;
61572;SDS011;47465;43.094;12.434;2023-05-07T15:53:45;7.77;;;4.10;;
61572;SDS011;47465;43.094;12.434;2023-05-07T15:56:11;7.80;;;4.22;;
61572;SDS011;47465;43.094;12.434;2023-05-07T15:58:37;8.50;;;4.15;;
61572;SDS011;47465;43.094;12.434;2023-05-07T16:01:03;6.90;;;3.88;;
61572;SDS011;47465;43.094;12.434;2023-05-07T16:03:29;11.48;;;3.92;;
61572;SDS011;47465;43.094;12.434;2023-05-07T16:05:55;5.93;;;3.42;;
61572;SDS011;47465;43.094;12.434;2023-05-07T16:08:26;11.68;;;4.22;;
61572;SDS011;47465;43.094;12.434;2023-05-07T16:10:52;6.13;;;3.70;;
61572;SDS011;47465;43.094;12.434;2023-05-07T16:13:18;7.15;;;4.03;;
61572;SDS011;47465;43.094;12.434;2023-05-07T16:15:44;6.53;;;4.20;;
61572;SDS011;47465;43.094;12.434;2023-05-07T16:18:10;9.73;;;4.75;;
61572;SDS011;47465;43.094;12.434;2023-05-07T16:20:36;7.88;;;4.47;;
61572;SDS011;47465;43.094;12.434;2023-05-07T16:23:02;6.93;;;4.28;;
61572;SDS011;47465;43.094;12.434;2023-05-07T16:25:29;7.38;;;4.25;;
61572;SDS011;47465;43.094;12.434;2023-05-07T16:27:56;8.70;;;4.30;;
61572;SDS011;47465;43.094;12.434;2023-05-07T16:30:21;8.63;;;3.65;;
61572;SDS011;47465;43.094;12.434;2023-05-07T16:32:47;5.90;;;3.65;;
61572;SDS011;47465;43.094;12.434;2023-05-07T16:35:13;6.78;;;3.78;;
61572;SDS011;47465;43.094;12.434;2023-05-07T16:37:39;7.35;;;4.22;;
61572;SDS011;47465;43.094;12.434;2023-05-07T16:40:06;7.32;;;4.20;;
61572;SDS011;47465;43.094;12.434;2023-05-07T16:42:34;6.20;;;3.92;;
61572;SDS011;47465;43.094;12.434;2023-05-07T16:45:01;6.60;;;4.10;;
61572;SDS011;47465;43.094;12.434;2023-05-07T16:47:28;7.80;;;4.13;;
61572;SDS011;47465;43.094;12.434;2023-05-07T16:49:54;7.07;;;3.88;;
61572;SDS011;47465;43.094;12.434;2023-05-07T16:52:20;7.03;;;4.38;;
61572;SDS011;47465;43.094;12.434;2023-05-07T16:54:47;5.95;;;4.05;;
61572;SDS011;47465;43.094;12.434;2023-05-07T16:57:13;8.75;;;4.15;;
61572;SDS011;47465;43.094;12.434;2023-05-07T16:59:40;7.13;;;3.90;;
61572;SDS011;47465;43.094;12.434;2023-05-07T17:02:06;8.07;;;4.00;;
61572;SDS011;47465;43.094;12.434;2023-05-07T17:04:32;6.00;;;3.97;;
61572;SDS011;47465;43.094;12.434;2023-05-07T17:06:57;7.43;;;3.75;;
61572;SDS011;47465;43.094;12.434;2023-05-07T17:09:23;5.25;;;3.83;;
61572;SDS011;47465;43.094;12.434;2023-05-07T17:11:49;7.53;;;3.72;;
61572;SDS011;47465;43.094;12.434;2023-05-07T17:14:15;5.38;;;3.50;;
61572;SDS011;47465;43.094;12.434;2023-05-07T17:16:42;5.63;;;3.63;;
61572;SDS011;47465;43.094;12.434;2023-05-07T17:19:08;9.20;;;3.80;;
61572;SDS011;47465;43.094;12.434;2023-05-07T17:21:34;5.15;;;3.63;;
61572;SDS011;47465;43.094;12.434;2023-05-07T17:24:00;6.07;;;3.60;;
61572;SDS011;47465;43.094;12.434;2023-05-07T17:26:26;7.60;;;3.75;;
61572;SDS011;47465;43.094;12.434;2023-05-07T17:28:52;5.43;;;3.45;;
61572;SDS011;47465;43.094;12.434;2023-05-07T17:31:18;6.82;;;3.78;;
61572;SDS011;47465;43.094;12.434;2023-05-07T17:33:45;6.50;;;3.80;;
61572;SDS011;47465;43.094;12.434;2023-05-07T17:36:11;5.90;;;3.63;;
61572;SDS011;47465;43.094;12.434;2023-05-07T17:38:37;6.43;;;3.67;;
61572;SDS011;47465;43.094;12.434;2023-05-07T17:41:03;8.23;;;3.92;;
61572;SDS011;47465;43.094;12.434;2023-05-07T17:43:29;7.50;;;3.58;;
61572;SDS011;47465;43.094;12.434;2023-05-07T17:45:55;5.72;;;3.60;;
61572;SDS011;47465;43.094;12.434;2023-05-07T17:48:20;8.02;;;3.60;;
61572;SDS011;47465;43.094;12.434;2023-05-07T17:50:48;5.40;;;3.60;;
61572;SDS011;47465;43.094;12.434;2023-05-07T17:53:14;5.28;;;3.53;;
61572;SDS011;47465;43.094;12.434;2023-05-07T17:55:40;7.25;;;3.10;;
61572;SDS011;47465;43.094;12.434;2023-05-07T17:58:07;6.45;;;3.47;;
61572;SDS011;47465;43.094;12.434;2023-05-07T18:00:33;5.63;;;3.40;;
61572;SDS011;47465;43.094;12.434;2023-05-07T18:03:00;5.78;;;3.58;;
61572;SDS011;47465;43.094;12.434;2023-05-07T18:05:26;6.93;;;3.47;;
61572;SDS011;47465;43.094;12.434;2023-05-07T18:07:53;11.43;;;4.25;;
61572;SDS011;47465;43.094;12.434;2023-05-07T18:10:20;5.93;;;3.47;;
61572;SDS011;47465;43.094;12.434;2023-05-07T18:12:47;5.90;;;3.38;;
61572;SDS011;47465;43.094;12.434;2023-05-07T18:15:12;8.23;;;3.72;;
61572;SDS011;47465;43.094;12.434;2023-05-07T18:17:38;6.30;;;3.45;;
61572;SDS011;47465;43.094;12.434;2023-05-07T18:20:05;7.00;;;3.67;;
61572;SDS011;47465;43.094;12.434;2023-05-07T18:22:35;4.25;;;3.10;;
61572;SDS011;47465;43.094;12.434;2023-05-07T18:25:03;7.80;;;3.55;;
61572;SDS011;47465;43.094;12.434;2023-05-07T18:27:30;6.80;;;3.00;;
61572;SDS011;47465;43.094;12.434;2023-05-07T18:29:56;5.70;;;3.20;;
61572;SDS011;47465;43.094;12.434;2023-05-07T18:32:22;4.20;;;3.03;;
61572;SDS011;47465;43.094;12.434;2023-05-07T18:34:47;6.63;;;3.53;;
61572;SDS011;47465;43.094;12.434;2023-05-07T18:37:14;6.22;;;3.67;;
61572;SDS011;47465;43.094;12.434;2023-05-07T18:39:40;5.28;;;3.40;;
61572;SDS011;47465;43.094;12.434;2023-05-07T18:42:09;5.00;;;3.05;;
61572;SDS011;47465;43.094;12.434;2023-05-07T18:44:35;5.13;;;3.40;;
61572;SDS011;47465;43.094;12.434;2023-05-07T18:47:02;5.68;;;3.30;;
61572;SDS011;47465;43.094;12.434;2023-05-07T18:49:28;4.40;;;3.10;;
61572;SDS011;47465;43.094;12.434;2023-05-07T18:51:54;6.68;;;3.60;;
61572;SDS011;47465;43.094;12.434;2023-05-07T18:54:21;5.93;;;3.78;;
61572;SDS011;47465;43.094;12.434;2023-05-07T18:56:47;7.28;;;3.42;;
61572;SDS011;47465;43.094;12.434;2023-05-07T18:59:15;6.90;;;3.42;;
61572;SDS011;47465;43.094;12.434;2023-05-07T19:01:40;5.47;;;3.60;;
61572;SDS011;47465;43.094;12.434;2023-05-07T19:04:07;5.07;;;3.13;;
61572;SDS011;47465;43.094;12.434;2023-05-07T19:06:33;7.40;;;3.55;;
61572;SDS011;47465;43.094;12.434;2023-05-07T19:08:59;5.93;;;3.40;;
61572;SDS011;47465;43.094;12.434;2023-05-07T19:11:25;4.60;;;3.25;;
61572;SDS011;47465;43.094;12.434;2023-05-07T19:13:51;6.20;;;3.20;;
61572;SDS011;47465;43.094;12.434;2023-05-07T19:16:18;5.53;;;3.55;;
61572;SDS011;47465;43.094;12.434;2023-05-07T19:18:44;6.95;;;3.20;;
61572;SDS011;47465;43.094;12.434;2023-05-07T19:21:10;5.82;;;3.20;;
61572;SDS011;47465;43.094;12.434;2023-05-07T19:23:36;5.10;;;3.50;;
61572;SDS011;47465;43.094;12.434;2023-05-07T19:26:06;6.10;;;3.22;;
61572;SDS011;47465;43.094;12.434;2023-05-07T19:28:32;5.55;;;3.60;;
61572;SDS011;47465;43.094;12.434;2023-05-07T19:30:58;5.30;;;3.63;;
61572;SDS011;47465;43.094;12.434;2023-05-07T19:33:28;5.78;;;3.72;;
61572;SDS011;47465;43.094;12.434;2023-05-07T19:35:54;5.57;;;3.40;;
61572;SDS011;47465;43.094;12.434;2023-05-07T19:38:22;8.13;;;3.63;;
61572;SDS011;47465;43.094;12.434;2023-05-07T19:40:49;5.93;;;3.47;;
61572;SDS011;47465;43.094;12.434;2023-05-07T19:43:15;8.60;;;3.47;;
61572;SDS011;47465;43.094;12.434;2023-05-07T19:45:40;6.57;;;3.60;;
61572;SDS011;47465;43.094;12.434;2023-05-07T19:48:07;6.22;;;3.83;;
61572;SDS011;47465;43.094;12.434;2023-05-07T19:50:34;8.52;;;3.70;;
61572;SDS011;47465;43.094;12.434;2023-05-07T19:53:01;5.68;;;3.90;;
61572;SDS011;47465;43.094;12.434;2023-05-07T19:55:27;5.00;;;3.38;;
61572;SDS011;47465;43.094;12.434;2023-05-07T19:57:53;7.40;;;4.25;;
61572;SDS011;47465;43.094;12.434;2023-05-07T20:00:19;7.25;;;4.20;;
61572;SDS011;47465;43.094;12.434;2023-05-07T20:02:46;6.15;;;3.90;;
61572;SDS011;47465;43.094;12.434;2023-05-07T20:05:13;8.10;;;4.30;;
61572;SDS011;47465;43.094;12.434;2023-05-07T20:07:40;6.70;;;3.95;;
61572;SDS011;47465;43.094;12.434;2023-05-07T20:10:06;8.30;;;3.85;;
61572;SDS011;47465;43.094;12.434;2023-05-07T20:12:33;10.10;;;4.40;;
61572;SDS011;47465;43.094;12.434;2023-05-07T20:14:59;8.00;;;4.00;;
61572;SDS011;47465;43.094;12.434;2023-05-07T20:17:25;5.80;;;3.75;;
61572;SDS011;47465;43.094;12.434;2023-05-07T20:19:50;8.68;;;4.18;;
61572;SDS011;47465;43.094;12.434;2023-05-07T20:22:16;9.45;;;4.50;;
61572;SDS011;47465;43.094;12.434;2023-05-07T20:24:44;6.45;;;3.83;;
61572;SDS011;47465;43.094;12.434;2023-05-07T20:27:10;8.27;;;4.28;;
61572;SDS011;47465;43.094;12.434;2023-05-07T20:29:35;7.00;;;3.72;;
61572;SDS011;47465;43.094;12.434;2023-05-07T20:32:01;6.50;;;3.92;;
61572;SDS011;47465;43.094;12.434;2023-05-07T20:34:30;6.85;;;4.00;;
61572;SDS011;47465;43.094;12.434;2023-05-07T20:39:22;6.75;;;3.80;;
61572;SDS011;47465;43.094;12.434;2023-05-07T20:41:50;6.82;;;3.78;;
61572;SDS011;47465;43.094;12.434;2023-05-07T20:44:16;8.87;;;4.63;;
61572;SDS011;47465;43.094;12.434;2023-05-07T20:46:43;6.90;;;3.97;;
61572;SDS011;47465;43.094;12.434;2023-05-07T20:49:08;5.68;;;3.90;;
61572;SDS011;47465;43.094;12.434;2023-05-07T20:51:34;7.45;;;4.22;;
61572;SDS011;47465;43.094;12.434;2023-05-07T20:54:01;7.32;;;3.95;;
61572;SDS011;47465;43.094;12.434;2023-05-07T20:56:27;6.60;;;4.10;;
61572;SDS011;47465;43.094;12.434;2023-05-07T20:58:55;11.27;;;4.50;;
61572;SDS011;47465;43.094;12.434;2023-05-07T21:01:20;6.35;;;3.95;;
61572;SDS011;47465;43.094;12.434;2023-05-07T21:03:46;6.63;;;4.05;;
61572;SDS011;47465;43.094;12.434;2023-05-07T21:06:14;6.30;;;4.35;;
61572;SDS011;47465;43.094;12.434;2023-05-07T21:08:40;6.90;;;4.20;;
61572;SDS011;47465;43.094;12.434;2023-05-07T21:11:06;7.50;;;4.40;;
61572;SDS011;47465;43.094;12.434;2023-05-07T21:13:34;11.57;;;4.77;;
61572;SDS011;47465;43.094;12.434;2023-05-07T21:16:01;11.48;;;4.82;;
61572;SDS011;47465;43.094;12.434;2023-05-07T21:18:27;7.22;;;4.55;;
61572;SDS011;47465;43.094;12.434;2023-05-07T21:20:55;8.25;;;4.35;;
61572;SDS011;47465;43.094;12.434;2023-05-07T21:23:20;10.50;;;4.65;;
61572;SDS011;47465;43.094;12.434;2023-05-07T21:25:46;7.43;;;5.50;;
61572;SDS011;47465;43.094;12.434;2023-05-07T21:28:13;8.60;;;5.03;;
61572;SDS011;47465;43.094;12.434;2023-05-07T21:30:39;8.07;;;4.78;;
61572;SDS011;47465;43.094;12.434;2023-05-07T21:33:07;7.35;;;4.55;;
61572;SDS011;47465;43.094;12.434;2023-05-07T21:35:32;8.65;;;4.80;;
61572;SDS011;47465;43.094;12.434;2023-05-07T21:37:58;6.85;;;4.30;;
61572;SDS011;47465;43.094;12.434;2023-05-07T21:40:26;8.13;;;5.28;;
61572;SDS011;47465;43.094;12.434;2023-05-07T21:42:52;7.80;;;4.78;;
61572;SDS011;47465;43.094;12.434;2023-05-07T21:45:18;8.60;;;5.03;;
61572;SDS011;47465;43.094;12.434;2023-05-07T21:47:44;9.00;;;5.32;;
61572;SDS011;47465;43.094;12.434;2023-05-07T21:50:12;7.97;;;5.15;;
61572;SDS011;47465;43.094;12.434;2023-05-07T21:52:37;8.07;;;4.72;;
61572;SDS011;47465;43.094;12.434;2023-05-07T21:55:04;9.77;;;4.82;;
61572;SDS011;47465;43.094;12.434;2023-05-07T21:57:30;9.20;;;4.65;;
61572;SDS011;47465;43.094;12.434;2023-05-07T21:59:57;9.40;;;4.68;;
61572;SDS011;47465;43.094;12.434;2023-05-07T22:02:23;7.95;;;5.13;;
61572;SDS011;47465;43.094;12.434;2023-05-07T22:04:49;9.20;;;4.80;;
61572;SDS011;47465;43.094;12.434;2023-05-07T22:07:17;7.28;;;4.40;;
61572;SDS011;47465;43.094;12.434;2023-05-07T22:09:43;8.85;;;4.80;;
61572;SDS011;47465;43.094;12.434;2023-05-07T22:12:08;9.05;;;4.85;;
61572;SDS011;47465;43.094;12.434;2023-05-07T22:14:35;7.15;;;4.85;;
61572;SDS011;47465;43.094;12.434;2023-05-07T22:17:01;7.57;;;4.72;;
61572;SDS011;47465;43.094;12.434;2023-05-07T22:19:27;9.20;;;4.80;;
61572;SDS011;47465;43.094;12.434;2023-05-07T22:21:53;11.50;;;5.43;;
61572;SDS011;47465;43.094;12.434;2023-05-07T22:24:20;8.70;;;5.00;;
61572;SDS011;47465;43.094;12.434;2023-05-07T22:26:46;8.13;;;4.72;;
61572;SDS011;47465;43.094;12.434;2023-05-07T22:29:12;11.48;;;5.13;;
61572;SDS011;47465;43.094;12.434;2023-05-07T22:31:38;8.50;;;5.38;;
61572;SDS011;47465;43.094;12.434;2023-05-07T22:34:04;8.18;;;5.25;;
61572;SDS011;47465;43.094;12.434;2023-05-07T22:36:30;10.90;;;5.32;;
61572;SDS011;47465;43.094;12.434;2023-05-07T22:38:56;9.25;;;5.15;;
61572;SDS011;47465;43.094;12.434;2023-05-07T22:41:24;7.82;;;5.00;;
61572;SDS011;47465;43.094;12.434;2023-05-07T22:43:50;10.43;;;5.40;;
61572;SDS011;47465;43.094;12.434;2023-05-07T22:46:16;11.10;;;6.00;;
61572;SDS011;47465;43.094;12.434;2023-05-07T22:48:42;10.60;;;5.72;;
61572;SDS011;47465;43.094;12.434;2023-05-07T22:51:11;7.95;;;5.13;;
61572;SDS011;47465;43.094;12.434;2023-05-07T22:53:37;12.18;;;5.70;;
61572;SDS011;47465;43.094;12.434;2023-05-07T22:56:04;11.05;;;5.80;;
61572;SDS011;47465;43.094;12.434;2023-05-07T22:58:32;9.60;;;5.72;;
61572;SDS011;47465;43.094;12.434;2023-05-07T23:00:58;13.35;;;5.70;;